Time;durP1;ratioP1;P1;durP2;ratioP2;P2;SDS_P1;SDS_P2;PMS_P1;PMS_P2;Temp;Humidity;BMP_temperature;BMP_pressure;BME280_temperature;BME280_humidity;BME280_pressure;Samples;Min_cycle;Max_cycle;Signal;HPM_P1;HPM_P2
2022/09/07 00:00:45;;;;;;;2.47;1.95;;;20.20;99.90;;;;;;5040755;28;20228;-73
2022/09/07 00:03:13;;;;;;;2.33;2.20;;;20.10;99.90;;;;;;5044895;28;20191;-72
2022/09/07 00:05:44;;;;;;;2.30;2.10;;;20.10;99.90;;;;;;5044397;28;20223;-72
2022/09/07 00:08:12;;;;;;;2.00;1.90;;;20.00;99.90;;;;;;5045119;28;20199;-72
2022/09/07 00:10:39;;;;;;;2.20;2.08;;;20.10;99.90;;;;;;5043482;28;20218;-72
2022/09/07 00:13:07;;;;;;;2.00;1.90;;;20.10;99.90;;;;;;5047651;28;20568;-72
2022/09/07 00:15:38;;;;;;;2.10;2.00;;;20.20;99.90;;;;;;5048872;28;20234;-72
2022/09/07 00:18:06;;;;;;;2.25;2.05;;;20.20;99.90;;;;;;5040873;28;20199;-71
2022/09/07 00:20:34;;;;;;;2.40;2.20;;;20.10;99.90;;;;;;5044278;28;20232;-72
2022/09/07 00:23:01;;;;;;;1.95;1.75;;;20.00;99.90;;;;;;5043818;28;20206;-72
2022/09/07 00:25:28;;;;;;;2.08;1.95;;;19.80;99.90;;;;;;5047504;28;20223;-72
2022/09/07 00:27:55;;;;;;;2.20;2.10;;;19.80;99.90;;;;;;5046641;28;20194;-72
2022/09/07 00:30:23;;;;;;;2.30;2.10;;;19.90;99.90;;;;;;5042334;28;20578;-72
2022/09/07 00:32:50;;;;;;;2.45;2.25;;;19.90;99.90;;;;;;5043024;28;20195;-73
2022/09/07 00:35:18;;;;;;;2.42;2.15;;;19.90;99.90;;;;;;5048066;28;20723;-72
2022/09/07 00:37:47;;;;;;;2.70;2.50;;;19.80;99.90;;;;;;5046316;28;20209;-72
2022/09/07 00:40:14;;;;;;;2.65;2.45;;;19.70;99.90;;;;;;5041615;28;20225;-72
2022/09/07 00:42:41;;;;;;;2.33;2.00;;;19.70;99.90;;;;;;5047361;28;20199;-72
2022/09/07 00:45:12;;;;;;;1.92;1.83;;;19.70;99.90;;;;;;5043062;28;20764;-73
2022/09/07 00:47:50;;;;;;;3.50;2.47;;;19.70;99.90;;;;;;5043893;28;20436;-72
2022/09/07 00:50:24;;;;;;;2.70;2.50;;;19.70;99.90;;;;;;5042788;28;20230;-72
2022/09/07 00:52:58;;;;;;;2.60;2.40;;;19.50;99.90;;;;;;5044026;28;20669;-72
2022/09/07 00:55:26;;;;;;;2.95;2.75;;;19.40;99.90;;;;;;5038806;28;20230;-72
2022/09/07 00:57:55;;;;;;;3.50;2.95;;;19.30;99.90;;;;;;5043313;28;20195;-72
2022/09/07 01:00:23;;;;;;;4.47;2.70;;;19.30;99.90;;;;;;5038839;28;20213;-72
2022/09/07 01:02:54;;;;;;;3.40;3.03;;;19.30;99.90;;;;;;5045485;28;20199;-72
2022/09/07 01:05:26;;;;;;;2.88;2.40;;;19.30;99.90;;;;;;5044622;28;20713;-71
2022/09/07 01:07:56;;;;;;;4.45;3.00;;;19.20;99.90;;;;;;5041900;28;20199;-72
2022/09/07 01:10:26;;;;;;;2.80;2.60;;;19.10;99.90;;;;;;5041399;28;20740;-71
2022/09/07 01:12:53;;;;;;;2.30;2.10;;;19.00;99.90;;;;;;5038900;28;20198;-71
2022/09/07 01:15:24;;;;;;;2.70;2.50;;;19.00;99.90;;;;;;5044330;28;20234;-72
2022/09/07 01:18:01;;;;;;;2.45;2.25;;;19.00;99.90;;;;;;5044110;28;20206;-72
2022/09/07 01:20:53;;;;;;;2.83;2.53;;;19.10;99.90;;;;;;5039528;28;20242;-72
2022/09/07 01:23:46;;;;;;;2.70;2.50;;;19.30;99.90;;;;;;5043070;28;20199;-71
2022/09/07 01:27:05;;;;;;;2.50;2.28;;;19.30;99.90;;;;;;5045767;28;20214;-71
2022/09/07 01:29:39;;;;;;;2.50;2.30;;;19.40;99.90;;;;;;5001094;28;20865;-72
2022/09/07 01:32:14;;;;;;;1.90;1.80;;;19.40;99.90;;;;;;5002830;28;20922;-72
2022/09/07 01:34:49;;;;;;;2.47;2.03;;;19.40;99.90;;;;;;5020950;28;20229;-71
2022/09/07 01:37:22;;;;;;;2.00;1.90;;;19.50;99.90;;;;;;5039332;28;20210;-72
2022/09/07 01:40:00;;;;;;;1.80;1.70;;;19.60;99.90;;;;;;5038695;28;20925;-72
2022/09/07 01:42:31;;;;;;;2.22;2.03;;;19.60;99.90;;;;;;5040914;28;21022;-72
2022/09/07 01:45:02;;;;;;;2.35;2.15;;;19.60;99.90;;;;;;5040326;28;20234;-72
2022/09/07 01:47:34;;;;;;;4.82;2.20;;;19.70;99.90;;;;;;5041916;28;20550;-72
2022/09/07 01:50:08;;;;;;;2.05;1.95;;;19.70;99.90;;;;;;5041874;28;20215;-71
2022/09/07 01:52:41;;;;;;;2.13;2.03;;;19.70;99.90;;;;;;5043054;28;20203;-72
2022/09/07 01:55:14;;;;;;;2.05;1.83;;;19.60;99.90;;;;;;5042426;28;20314;-72
2022/09/07 01:57:46;;;;;;;2.13;1.90;;;19.60;99.90;;;;;;5043705;28;20199;-72
2022/09/07 02:00:18;;;;;;;2.30;2.10;;;19.60;99.90;;;;;;5041396;28;20624;-72
2022/09/07 02:02:51;;;;;;;2.60;2.40;;;19.50;99.90;;;;;;5041004;28;20207;-75
2022/09/07 02:05:22;;;;;;;2.63;2.20;;;19.50;99.90;;;;;;5041406;28;20223;-73
2022/09/07 02:07:56;;;;;;;2.47;2.25;;;19.50;99.90;;;;;;5040676;28;20206;-74
2022/09/07 02:10:26;;;;;;;2.45;2.25;;;19.40;99.90;;;;;;5046741;28;20219;-73
2022/09/07 02:12:59;;;;;;;2.20;2.00;;;19.40;99.90;;;;;;5042927;28;20206;-73
2022/09/07 02:15:32;;;;;;;2.60;2.40;;;19.40;99.90;;;;;;5044768;28;20223;-73
2022/09/07 02:18:02;;;;;;;2.53;2.30;;;19.50;99.90;;;;;;5041284;28;20198;-72
2022/09/07 02:20:33;;;;;;;2.88;2.58;;;19.40;99.90;;;;;;5044714;28;20226;-73
2022/09/07 02:23:02;;;;;;;2.45;2.25;;;19.40;99.90;;;;;;5040819;28;20223;-73
2022/09/07 02:25:36;;;;;;;2.40;2.20;;;19.30;99.90;;;;;;5041612;28;20249;-73
2022/09/07 02:28:08;;;;;;;2.30;2.10;;;19.30;99.90;;;;;;5040891;28;20191;-73
2022/09/07 02:30:37;;;;;;;2.42;2.15;;;19.10;99.90;;;;;;5040811;28;20244;-73
2022/09/07 02:33:05;;;;;;;2.35;2.15;;;19.10;99.90;;;;;;5042470;28;20200;-73
2022/09/07 02:35:32;;;;;;;3.60;3.10;;;19.10;99.90;;;;;;5044397;28;20215;-73
2022/09/07 02:38:04;;;;;;;3.05;2.75;;;19.10;99.90;;;;;;5041711;28;20695;-72
2022/09/07 02:40:32;;;;;;;2.80;2.45;;;19.10;99.90;;;;;;5042902;28;20219;-72
2022/09/07 02:43:01;;;;;;;2.80;2.60;;;19.10;99.90;;;;;;5039347;28;20808;-73
2022/09/07 02:45:35;;;;;;;7.18;2.70;;;18.90;99.90;;;;;;5043267;28;20219;-73
2022/09/07 02:48:14;;;;;;;3.17;2.70;;;18.80;99.90;;;;;;5043872;28;20191;-72
2022/09/07 02:51:03;;;;;;;2.60;2.40;;;18.70;99.90;;;;;;5045674;28;20595;-73
2022/09/07 02:54:00;;;;;;;2.70;2.38;;;18.60;99.90;;;;;;5041512;28;20285;-73
2022/09/07 02:56:43;;;;;;;3.30;2.50;;;18.50;99.90;;;;;;5040028;28;21034;-74
2022/09/07 02:59:23;;;;;;;2.47;2.28;;;18.40;99.90;;;;;;5042057;28;20199;-72
2022/09/07 03:01:58;;;;;;;2.20;2.10;;;18.50;99.90;;;;;;5041029;28;20669;-72
2022/09/07 03:04:40;;;;;;;2.90;2.70;;;18.60;99.90;;;;;;5038571;28;20245;-72
2022/09/07 03:07:12;;;;;;;5.43;2.50;;;18.50;99.90;;;;;;5040796;28;20266;-72
2022/09/07 03:09:44;;;;;;;2.83;2.58;;;18.50;99.90;;;;;;5040158;28;20721;-73
2022/09/07 03:12:13;;;;;;;3.20;2.22;;;18.50;99.90;;;;;;5041605;28;20218;-73
2022/09/07 03:14:41;;;;;;;2.60;2.40;;;18.60;99.90;;;;;;5036871;28;20342;-73
2022/09/07 03:17:08;;;;;;;2.70;2.50;;;18.70;99.90;;;;;;5039102;28;20199;-73
2022/09/07 03:19:37;;;;;;;2.63;2.42;;;18.70;99.90;;;;;;5042516;28;20914;-72
2022/09/07 03:22:04;;;;;;;2.35;2.15;;;18.70;99.90;;;;;;5038957;28;20206;-72
2022/09/07 03:24:32;;;;;;;2.72;2.53;;;18.70;99.90;;;;;;5036476;28;20229;-73
2022/09/07 03:26:59;;;;;;;2.58;2.38;;;18.60;99.90;;;;;;5038763;28;20732;-74
2022/09/07 03:29:26;;;;;;;2.60;2.40;;;18.60;99.90;;;;;;5042729;28;20201;-73
2022/09/07 03:31:53;;;;;;;2.80;2.60;;;18.60;99.90;;;;;;5037165;28;20274;-73
2022/09/07 03:34:21;;;;;;;2.67;2.47;;;18.60;99.90;;;;;;5037907;28;20723;-72
2022/09/07 03:36:49;;;;;;;2.50;2.30;;;18.60;99.90;;;;;;5042172;28;20665;-73
2022/09/07 03:39:19;;;;;;;2.70;2.50;;;18.60;99.90;;;;;;5041303;28;20221;-73
2022/09/07 03:41:47;;;;;;;4.38;3.20;;;18.40;99.90;;;;;;5042527;28;20692;-73
2022/09/07 03:44:15;;;;;;;3.50;3.20;;;18.30;99.90;;;;;;5043482;28;20878;-73
2022/09/07 03:46:43;;;;;;;3.55;3.25;;;18.20;99.90;;;;;;5045644;28;20211;-73
2022/09/07 03:49:10;;;;;;;3.83;3.53;;;18.20;99.90;;;;;;5041016;28;20214;-73
2022/09/07 03:51:37;;;;;;;4.45;4.05;;;18.20;99.90;;;;;;5043470;28;20661;-73
2022/09/07 03:54:06;;;;;;;3.90;3.60;;;18.00;99.90;;;;;;5044702;28;20199;-74
2022/09/07 03:56:33;;;;;;;3.50;3.20;;;17.90;99.90;;;;;;5047926;28;20288;-73
2022/09/07 03:59:00;;;;;;;3.70;3.35;;;17.90;99.90;;;;;;5043463;28;20201;-73
2022/09/07 04:01:28;;;;;;;3.65;3.35;;;18.00;99.90;;;;;;5046496;28;20215;-73
2022/09/07 04:03:58;;;;;;;3.22;3.03;;;18.00;99.90;;;;;;5043755;28;20206;-72
2022/09/07 04:06:25;;;;;;;3.30;3.10;;;18.10;99.90;;;;;;5037922;28;20222;-73
2022/09/07 04:08:54;;;;;;;3.97;3.67;;;18.20;99.90;;;;;;5042967;28;20229;-72
2022/09/07 04:11:23;;;;;;;4.03;3.70;;;18.30;99.90;;;;;;5045377;28;20233;-73
2022/09/07 04:13:50;;;;;;;5.22;4.05;;;18.40;99.90;;;;;;5042924;28;20195;-73
2022/09/07 04:16:20;;;;;;;3.90;3.60;;;18.40;99.90;;;;;;5042235;28;20723;-72
2022/09/07 04:18:48;;;;;;;3.67;3.22;;;18.40;99.90;;;;;;5045996;28;20229;-72
2022/09/07 04:21:15;;;;;;;3.85;3.53;;;18.40;99.90;;;;;;5043489;28;20229;-72
2022/09/07 04:23:43;;;;;;;3.35;3.10;;;18.30;99.90;;;;;;5046447;28;20203;-73
2022/09/07 04:26:14;;;;;;;2.80;2.60;;;18.30;99.90;;;;;;5044584;28;20222;-73
2022/09/07 04:28:44;;;;;;;2.53;2.40;;;18.30;99.90;;;;;;5046583;28;20203;-73
2022/09/07 04:31:12;;;;;;;2.60;2.50;;;18.40;99.90;;;;;;5042946;28;20215;-72
2022/09/07 04:33:39;;;;;;;2.70;2.50;;;18.50;99.90;;;;;;5047303;28;20210;-73
2022/09/07 04:36:06;;;;;;;2.70;2.50;;;18.50;99.90;;;;;;5043614;28;20215;-73
2022/09/07 04:38:34;;;;;;;2.30;2.20;;;18.60;99.90;;;;;;5045194;28;20213;-73
2022/09/07 04:41:01;;;;;;;3.15;2.30;;;18.60;99.90;;;;;;5041294;28;20210;-73
2022/09/07 04:43:29;;;;;;;2.75;2.40;;;18.60;99.90;;;;;;5047931;28;20203;-73
2022/09/07 04:45:58;;;;;;;3.42;3.22;;;18.60;99.90;;;;;;5051036;28;20302;-72
2022/09/07 04:48:25;;;;;;;3.20;3.00;;;18.50;99.90;;;;;;5041065;28;20195;-73
2022/09/07 04:50:52;;;;;;;3.20;2.97;;;18.50;99.90;;;;;;5041566;28;20215;-73
2022/09/07 04:53:19;;;;;;;3.13;2.92;;;18.40;99.90;;;;;;5042832;28;20199;-72
2022/09/07 04:55:46;;;;;;;2.80;2.60;;;18.40;99.90;;;;;;5041037;28;20223;-73
2022/09/07 04:58:13;;;;;;;2.38;2.17;;;18.50;99.90;;;;;;5045532;28;20196;-73
2022/09/07 05:00:40;;;;;;;3.22;2.92;;;18.50;99.90;;;;;;5044480;28;20218;-73
2022/09/07 05:03:09;;;;;;;2.88;2.67;;;18.50;99.90;;;;;;5041954;28;20201;-74
2022/09/07 05:05:38;;;;;;;2.90;2.70;;;18.60;99.90;;;;;;5044424;28;20871;-73
2022/09/07 05:08:05;;;;;;;3.20;2.97;;;18.60;99.90;;;;;;5042385;28;20685;-73
2022/09/07 05:10:32;;;;;;;3.42;3.10;;;18.50;99.90;;;;;;5044883;28;20225;-73
2022/09/07 05:13:00;;;;;;;3.05;2.85;;;18.50;99.90;;;;;;5045274;28;20226;-72
2022/09/07 05:15:29;;;;;;;3.30;3.10;;;18.40;99.90;;;;;;5042723;28;20210;-73
2022/09/07 05:17:56;;;;;;;3.08;2.88;;;18.30;99.90;;;;;;5045022;28;20195;-73
2022/09/07 05:20:24;;;;;;;2.80;2.60;;;18.30;99.90;;;;;;5043657;28;20222;-73
2022/09/07 05:22:58;;;;;;;2.95;2.75;;;18.30;99.90;;;;;;5041932;28;20210;-73
2022/09/07 05:25:27;;;;;;;2.88;2.67;;;18.40;99.90;;;;;;5042480;28;20223;-74
2022/09/07 05:27:55;;;;;;;2.90;2.70;;;18.40;99.90;;;;;;5038013;28;20249;-74
2022/09/07 05:30:22;;;;;;;2.65;2.45;;;18.50;99.90;;;;;;5045676;28;20244;-73
2022/09/07 05:32:49;;;;;;;2.58;2.38;;;18.50;99.90;;;;;;5043149;28;20203;-73
2022/09/07 05:35:17;;;;;;;2.90;2.63;;;18.60;99.90;;;;;;5038754;28;20235;-73
2022/09/07 05:37:50;;;;;;;2.67;2.47;;;18.60;99.90;;;;;;5044710;28;20202;-73
2022/09/07 05:40:17;;;;;;;2.75;2.55;;;18.70;99.90;;;;;;5042866;28;20284;-73
2022/09/07 05:42:44;;;;;;;2.45;2.28;;;18.70;99.90;;;;;;5043287;28;20198;-74
2022/09/07 05:45:12;;;;;;;2.47;2.30;;;18.70;99.90;;;;;;5040998;28;20226;-74
2022/09/07 05:47:39;;;;;;;2.40;2.30;;;18.80;99.90;;;;;;5042768;28;20207;-74
2022/09/07 05:50:07;;;;;;;3.28;2.28;;;18.90;99.90;;;;;;5036811;28;20211;-74
2022/09/07 05:52:35;;;;;;;2.65;2.45;;;18.90;99.90;;;;;;5040967;28;20340;-76
2022/09/07 05:55:04;;;;;;;2.90;2.70;;;19.00;99.90;;;;;;5039735;28;20221;-74
2022/09/07 05:57:31;;;;;;;2.40;2.30;;;19.00;99.90;;;;;;5033566;28;20323;-75
2022/09/07 05:59:58;;;;;;;2.40;2.30;;;18.90;99.90;;;;;;5033560;28;20220;-76
2022/09/07 06:02:25;;;;;;;2.65;2.45;;;18.80;99.90;;;;;;5035173;28;20195;-76
2022/09/07 06:04:52;;;;;;;2.20;2.10;;;18.90;99.90;;;;;;5032566;28;20219;-76
2022/09/07 06:07:19;;;;;;;2.40;2.30;;;18.90;99.90;;;;;;5031442;28;20218;-75
2022/09/07 06:09:46;;;;;;;2.53;2.33;;;19.00;99.90;;;;;;5029975;28;20226;-75
2022/09/07 06:12:15;;;;;;;2.60;2.25;;;19.20;99.90;;;;;;5037686;28;20197;-75
2022/09/07 06:14:42;;;;;;;4.43;2.28;;;19.30;99.90;;;;;;5037659;28;20716;-76
2022/09/07 06:17:09;;;;;;;2.78;2.58;;;19.30;99.90;;;;;;5034058;28;20199;-76
2022/09/07 06:19:36;;;;;;;2.58;2.38;;;19.30;99.90;;;;;;5036606;28;20234;-76
2022/09/07 06:22:03;;;;;;;3.28;2.40;;;19.30;99.90;;;;;;5034746;28;20203;-76
2022/09/07 06:24:30;;;;;;;2.67;2.47;;;19.40;99.90;;;;;;5039681;28;20226;-75
2022/09/07 06:26:57;;;;;;;3.03;2.83;;;19.40;99.90;;;;;;5038002;28;20885;-75
2022/09/07 06:29:26;;;;;;;4.10;3.80;;;19.40;99.90;;;;;;5033580;28;20563;-77
2022/09/07 06:31:53;;;;;;;3.47;3.03;;;19.30;99.90;;;;;;5035873;28;20194;-75
2022/09/07 06:34:21;;;;;;;3.17;2.97;;;19.10;99.90;;;;;;5035648;28;20768;-75
2022/09/07 06:36:50;;;;;;;3.65;3.30;;;19.10;99.90;;;;;;5037049;28;20199;-75
2022/09/07 06:39:17;;;;;;;3.63;3.33;;;19.20;99.90;;;;;;5035956;28;20195;-75
2022/09/07 06:41:44;;;;;;;3.40;3.10;;;19.20;99.90;;;;;;5033693;28;20257;-74
2022/09/07 06:44:12;;;;;;;3.40;3.20;;;19.20;99.90;;;;;;5037524;28;20219;-75
2022/09/07 06:46:40;;;;;;;3.95;3.55;;;19.20;99.90;;;;;;5036253;28;20738;-75
2022/09/07 06:49:08;;;;;;;3.00;2.80;;;19.20;99.90;;;;;;5040217;28;20227;-76
2022/09/07 06:51:35;;;;;;;2.83;2.63;;;19.40;99.90;;;;;;5041299;28;20256;-75
2022/09/07 06:54:04;;;;;;;3.13;2.92;;;19.60;99.90;;;;;;5035918;28;20195;-76
2022/09/07 06:56:31;;;;;;;3.22;3.00;;;19.80;99.90;;;;;;5039261;28;20235;-76
2022/09/07 06:58:58;;;;;;;4.00;3.20;;;19.80;99.90;;;;;;5048254;28;20483;-76
2022/09/07 07:01:27;;;;;;;3.00;2.80;;;19.80;99.90;;;;;;5042435;28;20301;-76
2022/09/07 07:03:57;;;;;;;2.83;2.63;;;19.80;99.90;;;;;;5040327;28;20195;-74
2022/09/07 07:06:24;;;;;;;3.20;3.00;;;19.90;99.90;;;;;;5031077;28;20218;-74
2022/09/07 07:08:54;;;;;;;2.70;2.50;;;20.00;99.90;;;;;;5035898;28;20198;-74
2022/09/07 07:11:21;;;;;;;2.97;2.70;;;20.10;99.90;;;;;;5035331;28;20235;-74
2022/09/07 07:13:48;;;;;;;2.95;2.75;;;20.20;99.90;;;;;;5037527;28;20292;-74
2022/09/07 07:16:17;;;;;;;3.30;3.00;;;20.30;99.90;;;;;;5035289;28;20830;-75
2022/09/07 07:18:44;;;;;;;3.42;3.15;;;20.30;99.90;;;;;;5034774;28;20195;-74
2022/09/07 07:21:14;;;;;;;2.90;2.70;;;20.40;99.90;;;;;;5038180;28;20560;-76
2022/09/07 07:23:42;;;;;;;2.95;2.75;;;20.40;99.90;;;;;;5035955;28;20211;-76
2022/09/07 07:26:13;;;;;;;3.70;2.90;;;20.60;99.90;;;;;;5041805;28;20219;-76
2022/09/07 07:28:44;;;;;;;2.80;2.60;;;20.70;99.90;;;;;;5039728;28;20203;-76
2022/09/07 07:31:11;;;;;;;3.95;3.30;;;20.90;99.90;;;;;;5040190;28;20226;-76
2022/09/07 07:33:39;;;;;;;3.40;3.10;;;20.90;99.90;;;;;;5039370;28;20196;-76
2022/09/07 07:36:12;;;;;;;5.30;3.25;;;21.00;99.90;;;;;;5043408;28;20288;-76
2022/09/07 07:38:40;;;;;;;5.18;2.90;;;21.40;99.90;;;;;;5039081;28;20491;-74
2022/09/07 07:41:07;;;;;;;3.72;3.38;;;22.00;99.90;;;;;;5042097;28;20227;-76
2022/09/07 07:43:35;;;;;;;3.53;3.22;;;22.40;99.90;;;;;;5040998;28;20206;-77
2022/09/07 07:46:02;;;;;;;3.17;2.90;;;22.90;99.90;;;;;;5044459;28;20258;-76
2022/09/07 07:48:30;;;;;;;3.58;3.10;;;23.20;99.90;;;;;;5050625;28;20654;-76
2022/09/07 07:50:58;;;;;;;3.22;2.92;;;23.20;99.90;;;;;;5047696;28;20229;-76
2022/09/07 07:53:27;;;;;;;5.90;2.95;;;23.20;99.90;;;;;;5047970;28;20199;-76
2022/09/07 07:55:57;;;;;;;2.70;2.50;;;23.10;99.90;;;;;;5049497;28;20218;-75
2022/09/07 07:58:25;;;;;;;3.88;2.80;;;23.20;99.90;;;;;;5048398;28;20195;-76
2022/09/07 08:00:53;;;;;;;5.05;2.50;;;23.50;99.90;;;;;;5045962;28;20234;-75
2022/09/07 08:03:21;;;;;;;3.35;3.05;;;23.50;99.90;;;;;;5040113;28;20916;-75
2022/09/07 08:05:48;;;;;;;3.22;2.70;;;23.50;99.90;;;;;;5036697;28;20223;-75
2022/09/07 08:08:15;;;;;;;3.35;3.00;;;23.60;99.90;;;;;;5035712;28;20226;-76
2022/09/07 08:10:46;;;;;;;3.85;3.30;;;23.70;99.90;;;;;;5035158;28;20230;-75
2022/09/07 08:13:14;;;;;;;3.40;3.10;;;23.70;99.90;;;;;;5041559;28;20204;-75
2022/09/07 08:15:43;;;;;;;3.20;2.90;;;23.90;99.90;;;;;;5042103;28;20233;-74
2022/09/07 08:18:11;;;;;;;2.88;2.67;;;24.10;99.90;;;;;;5042159;28;20665;-74
2022/09/07 08:20:39;;;;;;;3.65;3.08;;;24.30;99.90;;;;;;5037940;28;20258;-74
2022/09/07 08:23:07;;;;;;;4.22;3.00;;;24.20;99.90;;;;;;5038191;28;20222;-74
2022/09/07 08:25:34;;;;;;;2.80;2.60;;;24.00;99.90;;;;;;5041489;28;20227;-74
2022/09/07 08:28:03;;;;;;;2.70;2.50;;;24.20;99.90;;;;;;5039681;28;20555;-74
2022/09/07 08:30:30;;;;;;;2.80;2.60;;;24.40;99.90;;;;;;5034406;28;20274;-74
2022/09/07 08:32:57;;;;;;;3.30;3.10;;;24.50;99.90;;;;;;5040384;28;20200;-75
2022/09/07 08:35:25;;;;;;;3.33;3.05;;;24.70;99.90;;;;;;5039454;28;20735;-74
2022/09/07 08:37:52;;;;;;;2.90;2.58;;;24.60;99.90;;;;;;5039794;28;20191;-74
2022/09/07 08:40:20;;;;;;;3.40;3.13;;;24.80;99.90;;;;;;5041060;28;20211;-75
2022/09/07 08:43:09;;;;;;;3.38;3.08;;;25.00;99.90;;;;;;5039296;28;20230;-74
2022/09/07 08:45:41;;;;;;;4.55;3.28;;;24.80;99.90;;;;;;5040115;28;20299;-73
2022/09/07 08:48:13;;;;;;;2.90;2.67;;;24.90;99.90;;;;;;5038530;28;20214;-75
2022/09/07 08:50:52;;;;;;;3.10;2.80;;;25.30;99.90;;;;;;5036629;28;20222;-75
2022/09/07 08:53:20;;;;;;;4.28;2.67;;;25.60;99.90;;;;;;5037366;28;20206;-76
2022/09/07 08:55:51;;;;;;;2.65;2.45;;;25.70;99.90;;;;;;5039140;28;20229;-76
2022/09/07 08:58:23;;;;;;;3.25;2.92;;;26.00;99.90;;;;;;5036277;28;20968;-76
2022/09/07 09:00:50;;;;;;;3.10;2.90;;;25.80;99.90;;;;;;5036681;28;20223;-75
2022/09/07 09:03:21;;;;;;;3.30;3.00;;;25.70;99.90;;;;;;5036102;28;20201;-75
2022/09/07 09:06:03;;;;;;;3.72;3.00;;;25.80;99.90;;;;;;5040488;28;20310;-74
2022/09/07 09:08:42;;;;;;;3.40;3.10;;;25.90;99.90;;;;;;5038609;28;20229;-77
2022/09/07 09:11:12;;;;;;;2.67;2.47;;;26.00;99.90;;;;;;5036500;28;20230;-75
2022/09/07 09:13:55;;;;;;;3.47;3.17;;;26.00;99.90;;;;;;5036781;28;20207;-74
2022/09/07 09:16:30;;;;;;;4.70;2.88;;;26.10;99.90;;;;;;5031452;28;20223;-74
2022/09/07 09:19:16;;;;;;;2.95;2.75;;;26.20;99.90;;;;;;5034536;28;20202;-75
2022/09/07 09:21:44;;;;;;;2.95;2.75;;;26.20;99.90;;;;;;5038156;28;20230;-74
2022/09/07 09:24:16;;;;;;;3.78;2.90;;;26.40;99.90;;;;;;5035369;28;20822;-74
2022/09/07 09:26:46;;;;;;;3.45;3.15;;;26.60;99.90;;;;;;5039712;28;20234;-75
2022/09/07 09:29:17;;;;;;;2.90;2.60;;;26.70;99.90;;;;;;5031927;28;20200;-74
2022/09/07 09:31:44;;;;;;;3.47;2.60;;;26.70;99.90;;;;;;5035304;28;20222;-77
2022/09/07 09:34:13;;;;;;;2.80;2.60;;;26.70;99.90;;;;;;5030381;28;20309;-73
2022/09/07 09:36:45;;;;;;;3.00;2.70;;;27.00;99.90;;;;;;5035141;28;20720;-73
2022/09/07 09:39:27;;;;;;;4.30;2.80;;;26.80;99.90;;;;;;5037494;28;20249;-73
2022/09/07 09:41:55;;;;;;;2.78;2.58;;;26.80;99.90;;;;;;5032744;28;20192;-76
2022/09/07 09:44:27;;;;;;;3.05;2.85;;;26.90;99.90;;;;;;5031572;28;20230;-72
2022/09/07 09:46:55;;;;;;;3.15;2.85;;;27.10;99.90;;;;;;5031803;28;20260;-73
2022/09/07 09:49:25;;;;;;;2.75;2.55;;;27.20;99.90;;;;;;5033388;28;20233;-71
2022/09/07 09:51:55;;;;;;;3.35;2.40;;;27.20;99.90;;;;;;5036921;28;20195;-72
2022/09/07 09:54:26;;;;;;;4.35;2.80;;;27.00;99.90;;;;;;5035320;28;20716;-71
2022/09/07 09:56:53;;;;;;;3.50;3.03;;;27.00;99.90;;;;;;5035973;28;20213;-72
2022/09/07 09:59:28;;;;;;;2.92;2.63;;;26.90;99.90;;;;;;5039015;28;20198;-71
2022/09/07 10:01:55;;;;;;;3.13;2.92;;;26.90;99.90;;;;;;5033451;28;20220;-71
2022/09/07 10:04:32;;;;;;;5.55;3.33;;;27.00;99.90;;;;;;5035055;28;20704;-71
2022/09/07 10:07:08;;;;;;;3.75;2.97;;;26.40;99.90;;;;;;5034235;28;20226;-71
2022/09/07 10:09:37;;;;;;;7.40;3.25;;;26.40;99.90;;;;;;5032907;28;20222;-72
2022/09/07 10:12:06;;;;;;;3.47;3.05;;;26.70;99.90;;;;;;5034292;28;20263;-71
2022/09/07 10:14:42;;;;;;;2.90;2.63;;;26.90;99.90;;;;;;5032439;28;20231;-71
2022/09/07 10:17:14;;;;;;;2.90;2.70;;;27.00;99.90;;;;;;5033436;28;20194;-71
2022/09/07 10:19:43;;;;;;;2.58;2.38;;;27.50;99.90;;;;;;5036224;28;20214;-71
2022/09/07 10:22:30;;;;;;;2.50;2.30;;;27.60;99.90;;;;;;5033569;28;20314;-72
2022/09/07 10:24:57;;;;;;;3.03;2.83;;;27.60;99.90;;;;;;5030489;28;20310;-71
2022/09/07 10:27:32;;;;;;;3.00;2.63;;;27.70;99.90;;;;;;5036209;28;20222;-70
2022/09/07 10:30:01;;;;;;;2.92;2.72;;;27.60;99.90;;;;;;5031403;28;20230;-72
2022/09/07 10:32:50;;;;;;;3.08;2.60;;;27.50;99.90;;;;;;5036190;28;20673;-70
2022/09/07 10:35:24;;;;;;;4.05;2.55;;;27.50;99.90;;;;;;5030693;28;20227;-71
2022/09/07 10:38:01;;;;;;;3.00;2.70;;;27.80;99.90;;;;;;5033416;28;20717;-70
2022/09/07 10:40:34;;;;;;;3.08;2.88;;;28.10;99.90;;;;;;5033102;28;20219;-71
2022/09/07 10:43:16;;;;;;;3.88;2.67;;;27.90;99.90;;;;;;5031444;28;20540;-72
2022/09/07 10:45:59;;;;;;;3.70;3.20;;;27.60;99.90;;;;;;5025371;28;20739;-71
2022/09/07 10:48:32;;;;;;;2.92;2.65;;;27.50;99.90;;;;;;5033256;28;20609;-69
2022/09/07 10:51:03;;;;;;;2.95;2.65;;;27.40;99.90;;;;;;5020665;28;20231;-70
2022/09/07 10:53:42;;;;;;;2.42;2.25;;;27.40;99.90;;;;;;5026346;28;20194;-71
2022/09/07 10:56:12;;;;;;;2.72;2.53;;;27.60;99.90;;;;;;5035318;28;20222;-72
2022/09/07 10:59:02;;;;;;;2.78;2.53;;;27.90;99.90;;;;;;5039086;28;20194;-72
2022/09/07 11:01:44;;;;;;;3.38;2.58;;;28.00;99.90;;;;;;5032748;28;20235;-70
2022/09/07 11:04:31;;;;;;;2.70;2.50;;;28.20;99.90;;;;;;5039782;28;20257;-71
2022/09/07 11:07:07;;;;;;;2.70;2.50;;;28.40;99.90;;;;;;5038328;28;20229;-70
2022/09/07 11:09:55;;;;;;;3.10;2.40;;;28.30;99.90;;;;;;5038524;28;20226;-71
2022/09/07 11:12:28;;;;;;;3.17;2.55;;;28.40;99.90;;;;;;5038425;28;22597;-71
2022/09/07 11:15:03;;;;;;;2.80;2.60;;;28.40;99.90;;;;;;5028996;28;20235;-70
2022/09/07 11:17:43;;;;;;;2.88;2.58;;;28.40;99.90;;;;;;5033354;28;20198;-70
2022/09/07 11:20:17;;;;;;;3.33;3.03;;;28.30;99.90;;;;;;5038402;28;20227;-70
2022/09/07 11:22:49;;;;;;;2.80;2.60;;;28.20;99.90;;;;;;5039854;28;20716;-70
2022/09/07 11:25:21;;;;;;;5.32;2.50;;;28.20;99.90;;;;;;5040831;28;20231;-69
2022/09/07 11:27:51;;;;;;;2.72;2.35;;;28.20;99.90;;;;;;5037546;28;20230;-70
2022/09/07 11:30:22;;;;;;;2.28;2.00;;;28.10;99.90;;;;;;5040842;28;20229;-70
2022/09/07 11:33:00;;;;;;;2.38;2.17;;;28.10;99.90;;;;;;5036752;28;20198;-70
2022/09/07 11:35:50;;;;;;;2.67;2.47;;;28.10;99.90;;;;;;5038823;28;20227;-70
2022/09/07 11:38:34;;;;;;;2.63;2.42;;;28.20;99.90;;;;;;5033903;28;20606;-69
2022/09/07 11:41:19;;;;;;;2.58;2.38;;;28.20;99.90;;;;;;5044648;28;20675;-70
2022/09/07 11:43:50;;;;;;;3.47;2.63;;;28.20;99.90;;;;;;5040230;28;20211;-70
2022/09/07 11:46:21;;;;;;;2.60;2.40;;;27.90;99.90;;;;;;5039380;28;20232;-70
2022/09/07 11:48:54;;;;;;;2.63;2.40;;;27.80;99.90;;;;;;5033263;28;20295;-70
2022/09/07 11:51:24;;;;;;;2.28;2.17;;;27.80;99.90;;;;;;5034965;28;20226;-70
2022/09/07 11:53:55;;;;;;;2.55;2.35;;;27.80;99.90;;;;;;5037238;28;20227;-70
2022/09/07 11:56:28;;;;;;;3.90;2.38;;;27.70;99.90;;;;;;5037952;28;20296;-70
2022/09/07 11:59:24;;;;;;;2.40;2.20;;;27.70;99.90;;;;;;5036887;28;20195;-69
2022/09/07 12:02:14;;;;;;;2.50;2.28;;;27.60;99.90;;;;;;5037126;28;20651;-70
2022/09/07 12:05:06;;;;;;;2.20;2.05;;;27.70;99.90;;;;;;5037205;28;20709;-70
2022/09/07 12:07:53;;;;;;;2.70;2.50;;;27.50;99.90;;;;;;5038926;28;20653;-69
2022/09/07 12:10:48;;;;;;;2.30;2.10;;;27.30;99.90;;;;;;5036977;28;20215;-70
2022/09/07 12:13:42;;;;;;;3.05;2.75;;;27.40;99.90;;;;;;5038408;28;20199;-70
2022/09/07 12:16:16;;;;;;;2.08;1.98;;;27.40;99.90;;;;;;5005733;28;20223;-69
2022/09/07 12:19:17;;;;;;;2.33;2.13;;;27.40;99.90;;;;;;5038016;28;20681;-69
2022/09/07 12:21:54;;;;;;;2.00;1.90;;;27.30;99.90;;;;;;5033880;28;20308;-69
2022/09/07 12:24:42;;;;;;;1.95;1.80;;;27.40;99.90;;;;;;5034975;28;20218;-70
2022/09/07 12:27:12;;;;;;;2.30;2.10;;;27.40;99.90;;;;;;5034900;28;20199;-70
2022/09/07 12:29:39;;;;;;;2.72;2.42;;;27.30;99.90;;;;;;5034926;28;20652;-70
2022/09/07 12:32:09;;;;;;;2.30;2.10;;;27.20;99.90;;;;;;5031206;28;20838;-69
2022/09/07 12:35:00;;;;;;;3.00;2.45;;;27.20;99.90;;;;;;5035978;28;21128;-70
2022/09/07 12:37:46;;;;;;;3.83;2.50;;;27.20;99.90;;;;;;5033627;28;20678;-69
2022/09/07 12:40:48;;;;;;;3.40;2.40;;;27.20;99.90;;;;;;5037584;28;20227;-70
2022/09/07 12:43:52;;;;;;;3.50;2.60;;;27.30;99.90;;;;;;5041210;28;20209;-70
2022/09/07 12:46:48;;;;;;;2.70;2.45;;;27.30;99.90;;;;;;5007887;28;20226;-70
2022/09/07 12:49:52;;;;;;;2.75;2.42;;;27.30;99.90;;;;;;5037733;28;20314;-70
2022/09/07 12:52:50;;;;;;;3.47;2.35;;;27.50;99.90;;;;;;5020691;28;20249;-70
2022/09/07 12:55:46;;;;;;;3.47;2.60;;;27.70;99.90;;;;;;5035357;28;20264;-70
2022/09/07 12:58:30;;;;;;;2.75;2.55;;;27.80;99.90;;;;;;5036847;28;20187;-71
2022/09/07 13:01:11;;;;;;;3.28;2.92;;;27.80;99.90;;;;;;5033213;28;20226;-71
2022/09/07 13:03:51;;;;;;;3.33;3.05;;;27.80;99.90;;;;;;5036843;28;20205;-70
2022/09/07 13:06:29;;;;;;;3.25;3.05;;;27.60;99.90;;;;;;5036088;28;20230;-70
2022/09/07 13:09:36;;;;;;;3.40;3.10;;;27.80;99.90;;;;;;5039620;28;20218;-70
2022/09/07 13:12:24;;;;;;;5.00;3.20;;;27.80;99.90;;;;;;5036149;28;20230;-69
2022/09/07 13:14:53;;;;;;;3.83;2.90;;;27.70;99.90;;;;;;5032878;28;20744;-69